This is the latest recevied weather packets stored in our database for station/object SR3WXD. If no packets are shown the sender has not sent any weather packets the latest 10 day(s).
| Time | Temp. | Humidity | Pressure | Rain* | Wind** | Luminosity | Snow |
|---|---|---|---|---|---|---|---|
| 1777690553 | 7.22° C | 79% | 999.2 hPa | 0 mm | - | - | - |
| 1777688752 | 7.78° C | 72% | 999.4 hPa | 0 mm | - | - | - |
| 1777686952 | 7.78° C | 71% | 999.4 hPa | 0 mm | - | - | - |
| 1777685152 | 7.78° C | 72% | 999.5 hPa | 0 mm | - | - | - |
| 1777683352 | 7.78° C | 71% | 999.5 hPa | 0 mm | - | - | - |
| 1777681552 | 7.78° C | 71% | 999.9 hPa | 0 mm | - | - | - |
| 1777679752 | 7.78° C | 70% | 999.7 hPa | 0 mm | - | - | - |
| 1777677952 | 8.33° C | 67% | 1000 hPa | 0 mm | - | - | - |
| 1777676152 | 8.89° C | 63% | 1000 hPa | 0 mm | - | - | - |
| 1777674352 | 10.56° C | 60% | 1000.2 hPa | 0 mm | - | - | - |
| 1777672552 | 12.22° C | 58% | 1000 hPa | 0 mm | - | - | - |
| 1777670752 | 12.22° C | 59% | 1000 hPa | 0 mm | - | - | - |
| 1777668952 | 11.11° C | 58% | 1000 hPa | 0 mm | - | - | - |
| 1777667152 | 11.11° C | 57% | 1000 hPa | 0 mm | - | - | - |
| 1777665352 | 11.67° C | 54% | 1000 hPa | 0 mm | - | - | - |
| 1777663552 | 12.22° C | 51% | 1000 hPa | 0 mm | - | - | - |
| 1777661752 | 13.89° C | 44% | 1000.2 hPa | 0 mm | - | - | - |
| 1777659951 | 15.56° C | 41% | 1000 hPa | 0 mm | - | - | - |
| 1777658151 | 17.78° C | 32% | 999.7 hPa | 0 mm | - | - | - |
| 1777656344 | 20° C | 30% | 999.9 hPa | 0 mm | - | - | - |
| 1777654544 | 20.56° C | 27% | 999.9 hPa | 0 mm | - | - | - |
| 1777652744 | 21.67° C | 23% | 1000 hPa | 0 mm | - | - | - |
| 1777650944 | 22.78° C | 21% | 1000.2 hPa | 0 mm | - | - | - |
| 1777649144 | 23.89° C | 20% | 1000.5 hPa | 0 mm | - | - | - |
| 1777647344 | 24.44° C | 20% | 1000.5 hPa | 0 mm | - | - | - |
* Rain latest hour (hover to see other rain measurements)
** Current wind speed in m/s (hover to see current wind gust speed)